LTN weather

London Luton Airport
London, England, United Kingdom

Public forecast

Using degrees Celsius for public forecast. Weather courtesy of forecast.io.

METAR (pilot weather report)

Retrieved 2018/10/21 12:20 UTC (23 minutes ago):

EGGW 211220Z AUTO 23007KT 9999 NCD 16/10 Q1026

TAF (pilot weather forecast)

Retrieved 2018/10/21 12:00 UTC (43 minutes ago):

TAF EGGW 211052Z 2112/2212 27010KT 9999 FEW020 BECMG 2116/2119 7000 -RA BKN010 TEMPO 2118/2121 BKN006 BECMG 2119/2122 35010KT 9999 NSW FEW010